createdAt,value
2023-02-14T00:01:25.786Z,99.72
2023-02-14T00:03:54.723Z,99.51
2023-02-14T00:06:22.297Z,99.13
2023-02-14T00:08:52.365Z,98.77
2023-02-14T00:11:20.701Z,98.16
2023-02-14T00:14:06.777Z,97.75
2023-02-14T00:16:34.210Z,97.37
2023-02-14T00:19:04.597Z,97.42
2023-02-14T00:21:41.038Z,97.51
2023-02-14T00:24:14.262Z,97.58
2023-02-14T00:26:42.457Z,97.29
2023-02-14T00:29:13.947Z,97.20
2023-02-14T00:31:42.359Z,96.97
2023-02-14T00:34:11.278Z,97.15
2023-02-14T00:36:39.532Z,96.98
2023-02-14T00:39:10.933Z,96.96
2023-02-14T00:41:39.895Z,96.92
2023-02-14T00:44:09.793Z,97.21
2023-02-14T00:46:38.829Z,97.10
2023-02-14T00:49:06.615Z,97.13
2023-02-14T00:51:33.986Z,97.24
2023-02-14T00:54:02.065Z,97.18
2023-02-14T00:56:29.572Z,97.66
2023-02-14T00:58:57.262Z,97.55
2023-02-14T01:01:24.575Z,97.39
2023-02-14T01:03:52.190Z,97.63
2023-02-14T01:06:19.977Z,97.36
2023-02-14T01:08:47.937Z,97.44
2023-02-14T01:11:19.994Z,97.12
2023-02-14T01:13:49.839Z,97.46
2023-02-14T01:16:23.824Z,97.19
2023-02-14T01:18:52.368Z,97.25
2023-02-14T01:21:28.136Z,97.03
2023-02-14T01:23:59.852Z,96.87
2023-02-14T01:26:29.380Z,96.70
2023-02-14T01:28:57.553Z,96.63
2023-02-14T01:31:31.750Z,97.02
2023-02-14T01:34:00.626Z,97.20
2023-02-14T01:36:38.724Z,97.29
2023-02-14T01:39:13.773Z,97.64
2023-02-14T01:41:44.233Z,97.68
2023-02-14T01:44:14.834Z,97.68
2023-02-14T01:46:45.318Z,97.97
2023-02-14T01:49:18.587Z,98.31
2023-02-14T01:52:04.498Z,98.22
2023-02-14T01:54:39.000Z,98.34
2023-02-14T01:57:12.440Z,98.38
2023-02-14T01:59:51.249Z,98.58
2023-02-14T02:02:23.812Z,98.67
2023-02-14T02:04:56.056Z,98.70
2023-02-14T02:07:26.952Z,98.64
2023-02-14T02:10:00.776Z,98.55
2023-02-14T02:12:30.528Z,98.72
2023-02-14T02:15:00.542Z,98.41
2023-02-14T02:17:48.653Z,98.07
2023-02-14T02:20:31.659Z,98.10
2023-02-14T02:23:15.120Z,97.79
2023-02-14T02:26:13.682Z,97.89
2023-02-14T02:29:32.977Z,97.75
2023-02-14T02:32:27.879Z,97.83
2023-02-14T02:35:28.358Z,97.46
2023-02-14T02:38:10.822Z,97.36
2023-02-14T02:41:48.953Z,97.26
2023-02-14T02:44:44.571Z,96.84
2023-02-14T02:47:37.614Z,96.68
2023-02-14T02:51:03.551Z,96.56
2023-02-14T02:53:59.060Z,96.19
2023-02-14T02:56:47.374Z,96.33
2023-02-14T02:59:21.372Z,96.33
2023-02-14T03:02:23.040Z,96.45
2023-02-14T03:04:59.620Z,96.18
2023-02-14T03:07:39.871Z,96.09
2023-02-14T03:10:21.544Z,96.17
2023-02-14T03:13:26.116Z,96.19
2023-02-14T03:16:25.750Z,96.35
2023-02-14T03:19:36.470Z,96.43
2023-02-14T03:22:20.424Z,96.20
2023-02-14T03:25:24.661Z,96.03
2023-02-14T03:28:09.700Z,95.81
2023-02-14T03:31:07.412Z,95.28
2023-02-14T03:33:47.626Z,94.91
2023-02-14T03:36:31.883Z,94.70
2023-02-14T03:39:16.440Z,94.72
2023-02-14T03:42:10.061Z,94.52
2023-02-14T03:44:41.182Z,94.60
2023-02-14T03:47:16.630Z,94.48
2023-02-14T03:50:00.191Z,93.85
2023-02-14T03:52:30.348Z,94.05
2023-02-14T03:55:01.463Z,94.28
2023-02-14T03:58:14.661Z,93.85
2023-02-14T04:00:44.272Z,94.45
2023-02-14T04:03:15.333Z,94.62
2023-02-14T04:05:46.858Z,94.57
2023-02-14T04:08:26.360Z,94.67
2023-02-14T04:10:56.773Z,94.54
2023-02-14T04:13:24.449Z,94.94
2023-02-14T04:15:51.762Z,95.01
2023-02-14T04:18:37.832Z,94.61
2023-02-14T04:21:06.004Z,94.54
2023-02-14T04:23:33.632Z,94.50
2023-02-14T04:26:00.931Z,94.67
2023-02-14T04:28:28.547Z,94.74
2023-02-14T04:30:55.892Z,94.56
2023-02-14T04:33:24.479Z,94.27
2023-02-14T04:35:51.759Z,94.20
2023-02-14T04:38:19.288Z,94.32
2023-02-14T04:40:52.039Z,94.47
2023-02-14T04:43:20.268Z,94.38
2023-02-14T04:45:47.860Z,94.46
2023-02-14T04:48:15.588Z,94.51
2023-02-14T04:50:42.815Z,94.32
2023-02-14T04:53:10.525Z,94.43
2023-02-14T04:55:37.841Z,94.37
2023-02-14T04:58:05.512Z,94.04
2023-02-14T05:00:32.906Z,94.02
2023-02-14T05:03:00.497Z,93.82
2023-02-14T05:05:27.837Z,93.50
2023-02-14T05:07:55.421Z,93.93
2023-02-14T05:10:22.713Z,93.58
2023-02-14T05:12:50.245Z,93.28
2023-02-14T05:15:17.682Z,93.17
2023-02-14T05:17:45.174Z,93.39
2023-02-14T05:20:12.854Z,93.57
2023-02-14T05:22:40.350Z,93.60
2023-02-14T05:25:08.147Z,93.64
2023-02-14T05:27:35.668Z,93.93
2023-02-14T05:30:03.187Z,93.94
2023-02-14T05:32:30.700Z,94.10
2023-02-14T05:34:59.209Z,94.12
2023-02-14T05:37:28.469Z,93.92
2023-02-14T05:39:55.726Z,94.26
2023-02-14T05:42:23.284Z,94.59
2023-02-14T05:44:50.563Z,94.55
2023-02-14T05:47:18.199Z,94.49
2023-02-14T05:49:45.485Z,93.69
2023-02-14T05:52:13.064Z,94.07
2023-02-14T05:54:40.287Z,94.36
2023-02-14T05:57:07.964Z,94.53
2023-02-14T05:59:35.245Z,94.59
2023-02-14T06:02:02.948Z,94.21
2023-02-14T06:04:30.367Z,93.94
2023-02-14T06:06:57.975Z,93.70
2023-02-14T06:09:25.447Z,93.48
2023-02-14T06:11:55.200Z,93.07
2023-02-14T06:14:23.053Z,92.73
2023-02-14T06:16:50.800Z,93.14
2023-02-14T06:19:18.134Z,92.97
2023-02-14T06:21:45.735Z,93.15
2023-02-14T06:24:13.321Z,92.47
2023-02-14T06:26:40.847Z,92.48
2023-02-14T06:29:08.231Z,92.46
2023-02-14T06:31:36.111Z,92.41
2023-02-14T06:34:03.375Z,92.50
2023-02-14T06:36:30.881Z,92.21
2023-02-14T06:38:58.156Z,92.37
2023-02-14T06:41:25.750Z,92.51
2023-02-14T06:43:53.286Z,92.26
2023-02-14T06:46:21.422Z,92.41
2023-02-14T06:48:48.814Z,92.38
2023-02-14T06:51:16.503Z,92.22
2023-02-14T06:53:43.819Z,91.99
2023-02-14T06:56:11.442Z,91.65
2023-02-14T06:58:38.736Z,91.58
2023-02-14T07:01:06.429Z,91.31
2023-02-14T07:03:33.659Z,91.04
2023-02-14T07:06:01.394Z,90.52
2023-02-14T07:08:28.691Z,90.84
2023-02-14T07:10:58.869Z,90.98
2023-02-14T07:13:26.706Z,90.44
2023-02-14T07:15:54.591Z,90.11
2023-02-14T07:18:21.972Z,90.02
2023-02-14T07:20:51.266Z,89.82
2023-02-14T07:23:19.072Z,89.79
2023-02-14T07:25:46.669Z,89.17
2023-02-14T07:28:13.921Z,89.22
2023-02-14T07:30:41.573Z,88.90
2023-02-14T07:33:08.987Z,88.51
2023-02-14T07:35:36.665Z,88.15
2023-02-14T07:38:04.059Z,88.14
2023-02-14T07:40:31.925Z,87.36
2023-02-14T07:43:00.905Z,87.38
2023-02-14T07:45:28.564Z,86.54
2023-02-14T07:47:56.011Z,86.43
2023-02-14T07:50:24.120Z,86.11
2023-02-14T07:52:51.704Z,86.03
2023-02-14T07:55:19.516Z,85.68
2023-02-14T07:57:50.050Z,85.30
2023-02-14T08:00:18.505Z,85.85
2023-02-14T08:02:45.859Z,86.02
2023-02-14T08:05:14.961Z,85.53
2023-02-14T08:07:44.011Z,85.56
2023-02-14T08:10:13.126Z,85.23
2023-02-14T08:12:59.532Z,85.04
2023-02-14T08:15:54.321Z,84.24
2023-02-14T08:18:27.558Z,83.68
2023-02-14T08:20:55.333Z,83.60
2023-02-14T08:23:23.870Z,83.47
2023-02-14T08:25:53.252Z,83.07
2023-02-14T08:28:23.853Z,82.66
2023-02-14T08:30:52.561Z,82.38
2023-02-14T08:33:21.047Z,81.91
2023-02-14T08:35:51.680Z,81.17
2023-02-14T08:38:19.160Z,80.55
2023-02-14T08:40:46.785Z,79.44
2023-02-14T08:43:14.545Z,78.35
2023-02-14T08:45:42.266Z,77.74
2023-02-14T08:48:12.695Z,78.11
2023-02-14T08:50:43.349Z,78.04
2023-02-14T08:53:13.521Z,78.56
2023-02-14T08:55:41.636Z,78.87
2023-02-14T08:58:09.182Z,78.28
2023-02-14T09:00:36.913Z,78.49
2023-02-14T09:03:04.545Z,78.17
2023-02-14T09:05:34.223Z,77.67
2023-02-14T09:08:03.600Z,77.36
2023-02-14T09:10:31.731Z,76.71
2023-02-14T09:12:59.041Z,76.25
2023-02-14T09:15:26.752Z,76.05
2023-02-14T09:17:54.079Z,76.03
2023-02-14T09:20:21.929Z,75.85
2023-02-14T09:22:49.589Z,75.89
2023-02-14T09:25:17.616Z,75.81
2023-02-14T09:27:46.422Z,75.79
2023-02-14T09:30:15.433Z,75.81
2023-02-14T09:32:42.779Z,75.48
2023-02-14T09:35:10.395Z,74.91
2023-02-14T09:37:37.694Z,74.58
2023-02-14T09:40:06.340Z,74.28
2023-02-14T09:42:38.965Z,72.63
2023-02-14T09:45:26.963Z,71.61
2023-02-14T09:48:44.387Z,71.12
2023-02-14T09:51:21.387Z,69.17
2023-02-14T09:54:15.027Z,68.09
2023-02-14T09:57:11.469Z,68.00
2023-02-14T10:00:07.240Z,66.92
2023-02-14T10:02:46.752Z,66.14
2023-02-14T10:06:02.275Z,63.79
2023-02-14T10:08:48.454Z,62.61
2023-02-14T10:11:22.620Z,62.45
2023-02-14T10:13:57.562Z,62.83
2023-02-14T10:16:53.857Z,63.00
2023-02-14T10:19:32.157Z,63.53
2023-02-14T10:22:07.198Z,62.95
2023-02-14T10:24:51.753Z,63.11
2023-02-14T10:27:58.316Z,62.68
2023-02-14T10:30:26.220Z,63.10
2023-02-14T10:33:17.711Z,62.07
2023-02-14T10:36:19.262Z,61.83
2023-02-14T10:38:46.515Z,61.45
2023-02-14T10:41:18.070Z,61.39
2023-02-14T10:43:54.174Z,61.80
2023-02-14T10:47:16.339Z,61.92
2023-02-14T10:50:03.423Z,61.29
2023-02-14T10:52:53.422Z,60.18
2023-02-14T10:56:21.851Z,60.82
2023-02-14T10:58:53.842Z,61.32
2023-02-14T11:01:21.966Z,62.71
2023-02-14T11:04:03.838Z,62.56
2023-02-14T11:06:31.515Z,62.42
2023-02-14T11:08:59.577Z,62.60
2023-02-14T11:11:48.586Z,63.28
2023-02-14T11:14:26.547Z,63.84
2023-02-14T11:16:55.208Z,64.34
2023-02-14T11:19:31.775Z,64.79
2023-02-14T11:22:02.767Z,65.01
2023-02-14T11:24:42.318Z,65.35
2023-02-14T11:27:12.575Z,65.65
2023-02-14T11:29:53.131Z,66.04
2023-02-14T11:32:24.746Z,66.80
2023-02-14T11:34:58.082Z,67.12
2023-02-14T11:37:31.538Z,67.20
2023-02-14T11:40:02.083Z,67.08
2023-02-14T11:42:47.756Z,67.07
2023-02-14T11:45:37.536Z,66.81
2023-02-14T11:48:37.209Z,66.43
2023-02-14T11:51:14.135Z,66.58
2023-02-14T11:53:56.079Z,66.08
2023-02-14T11:56:24.752Z,65.85
2023-02-14T11:59:03.065Z,66.41
2023-02-14T12:01:38.717Z,67.78
2023-02-14T12:04:20.852Z,67.97
2023-02-14T12:06:49.038Z,68.34
2023-02-14T12:09:22.338Z,68.43
2023-02-14T12:11:58.330Z,68.43
2023-02-14T12:14:31.109Z,69.41
2023-02-14T12:17:07.471Z,69.28
2023-02-14T12:20:08.496Z,69.44
2023-02-14T12:23:10.941Z,69.37
2023-02-14T12:26:06.346Z,69.09
2023-02-14T12:28:48.296Z,68.70
2023-02-14T12:31:17.564Z,68.14
2023-02-14T12:33:46.881Z,67.90
2023-02-14T12:36:41.202Z,67.74
2023-02-14T12:39:40.848Z,67.64
2023-02-14T12:42:27.724Z,68.02
2023-02-14T12:46:04.846Z,68.24
2023-02-14T12:49:03.335Z,68.18
2023-02-14T12:51:50.575Z,68.26
2023-02-14T12:54:39.372Z,68.75
2023-02-14T12:57:30.662Z,68.59
2023-02-14T13:00:35.645Z,68.39
2023-02-14T13:03:34.972Z,68.80
2023-02-14T13:06:17.815Z,68.71
2023-02-14T13:09:44.328Z,69.32
2023-02-14T13:12:23.236Z,69.72
2023-02-14T13:15:32.883Z,69.94
2023-02-14T13:18:35.187Z,69.94
2023-02-14T13:21:09.722Z,69.63
2023-02-14T13:23:43.951Z,69.38
2023-02-14T13:26:32.571Z,68.93
2023-02-14T13:29:09.656Z,69.34
2023-02-14T13:31:39.470Z,69.88
2023-02-14T13:34:28.570Z,70.10
2023-02-14T13:36:59.419Z,70.84
2023-02-14T13:39:44.433Z,71.15
2023-02-14T13:42:13.089Z,71.17
2023-02-14T13:44:48.069Z,70.88
2023-02-14T13:47:23.237Z,70.63
2023-02-14T13:50:05.987Z,70.25
2023-02-14T13:52:54.881Z,69.98
2023-02-14T13:55:29.361Z,68.90
2023-02-14T13:58:19.298Z,69.30
2023-02-14T14:00:49.221Z,69.19
2023-02-14T14:03:43.092Z,68.94
2023-02-14T14:06:13.195Z,68.69
2023-02-14T14:08:45.203Z,69.09
2023-02-14T14:11:21.606Z,69.05
2023-02-14T14:14:02.461Z,69.14
2023-02-14T14:16:36.714Z,69.22
2023-02-14T14:19:27.024Z,69.20
2023-02-14T14:22:04.027Z,69.53
2023-02-14T14:24:38.301Z,69.67
2023-02-14T14:27:34.860Z,69.69
2023-02-14T14:30:35.387Z,70.11
2023-02-14T14:33:32.534Z,70.97
2023-02-14T14:36:02.632Z,71.01
2023-02-14T14:38:32.607Z,71.16
2023-02-14T14:41:02.182Z,71.29
2023-02-14T14:43:38.522Z,71.73
2023-02-14T14:46:13.238Z,71.81
2023-02-14T14:48:54.443Z,72.41
2023-02-14T14:51:28.980Z,72.11
2023-02-14T14:54:03.441Z,71.75
2023-02-14T14:56:47.158Z,71.52
2023-02-14T14:59:37.455Z,71.45
2023-02-14T15:02:23.527Z,71.81
2023-02-14T15:04:50.906Z,72.19
2023-02-14T15:07:34.784Z,72.34
2023-02-14T15:10:03.238Z,73.15
2023-02-14T15:12:49.975Z,73.74
2023-02-14T15:15:18.917Z,73.42
2023-02-14T15:17:48.199Z,73.68
2023-02-14T15:20:21.956Z,73.69
2023-02-14T15:22:53.186Z,73.87
2023-02-14T15:25:30.686Z,73.84
2023-02-14T15:27:58.867Z,74.33
2023-02-14T15:30:34.044Z,74.21
2023-02-14T15:33:07.767Z,74.27
2023-02-14T15:35:42.403Z,74.49
2023-02-14T15:38:13.489Z,74.53
2023-02-14T15:40:44.189Z,74.55
2023-02-14T15:43:33.336Z,74.75
2023-02-14T15:46:28.949Z,74.74
2023-02-14T15:49:01.353Z,75.77
2023-02-14T15:51:36.590Z,75.54
2023-02-14T15:54:18.225Z,75.90
2023-02-14T15:56:51.665Z,75.73
2023-02-14T15:59:19.154Z,75.53
2023-02-14T16:02:02.366Z,75.90
2023-02-14T16:04:33.990Z,75.75
2023-02-14T16:07:27.642Z,75.76
2023-02-14T16:10:25.916Z,75.87
2023-02-14T16:13:12.958Z,76.05
2023-02-14T16:16:03.516Z,76.20
2023-02-14T16:18:47.840Z,76.96
2023-02-14T16:21:33.499Z,77.17
2023-02-14T16:24:11.007Z,76.44
2023-02-14T16:26:46.909Z,75.94
2023-02-14T16:29:17.661Z,75.79
2023-02-14T16:32:14.777Z,75.76
2023-02-14T16:34:43.608Z,75.55
2023-02-14T16:37:31.714Z,75.50
2023-02-14T16:40:02.067Z,75.25
2023-02-14T16:42:29.820Z,74.83
2023-02-14T16:44:58.364Z,74.97
2023-02-14T16:47:27.971Z,74.97
2023-02-14T16:49:55.414Z,74.98
2023-02-14T16:52:28.313Z,74.86
2023-02-14T16:54:55.705Z,75.17
2023-02-14T16:57:42.980Z,75.07
2023-02-14T17:00:11.951Z,75.40
2023-02-14T17:02:39.808Z,75.15
2023-02-14T17:05:07.551Z,75.06
2023-02-14T17:07:37.546Z,75.05
2023-02-14T17:10:17.040Z,75.11
2023-02-14T17:12:48.796Z,75.05
2023-02-14T17:15:22.360Z,75.03
2023-02-14T17:17:55.813Z,75.08
2023-02-14T17:20:24.474Z,75.05
2023-02-14T17:22:52.340Z,74.86
2023-02-14T17:25:19.789Z,74.83
2023-02-14T17:27:48.321Z,75.00
2023-02-14T17:30:16.218Z,75.13
2023-02-14T17:32:44.243Z,75.18
2023-02-14T17:35:12.125Z,75.35
2023-02-14T17:37:39.930Z,75.13
2023-02-14T17:40:08.892Z,75.28
2023-02-14T17:42:37.408Z,75.12
2023-02-14T17:45:06.688Z,75.20
2023-02-14T17:47:35.279Z,75.12
2023-02-14T17:50:04.047Z,75.16
2023-02-14T17:52:32.258Z,74.91
2023-02-14T17:55:00.104Z,74.85
2023-02-14T17:57:27.766Z,74.81
2023-02-14T17:59:55.119Z,74.88
2023-02-14T18:02:22.750Z,74.77
2023-02-14T18:04:50.117Z,74.74
2023-02-14T18:07:17.715Z,74.77
2023-02-14T18:09:44.977Z,74.69
2023-02-14T18:12:37.432Z,74.73
2023-02-14T18:15:05.703Z,74.65
2023-02-14T18:17:34.945Z,74.76
2023-02-14T18:20:03.293Z,74.74
2023-02-14T18:22:31.772Z,75.03
2023-02-14T18:24:59.203Z,74.95
2023-02-14T18:27:26.892Z,75.02
2023-02-14T18:29:54.332Z,74.91
2023-02-14T18:32:21.965Z,75.02
2023-02-14T18:34:51.321Z,74.94
2023-02-14T18:37:19.214Z,74.99
2023-02-14T18:39:46.858Z,74.94
2023-02-14T18:42:14.487Z,74.97
2023-02-14T18:44:41.760Z,75.06
2023-02-14T18:47:09.526Z,74.98
2023-02-14T18:49:36.849Z,75.34
2023-02-14T18:52:05.132Z,75.37
2023-02-14T18:54:32.422Z,75.19
2023-02-14T18:57:00.220Z,75.18
2023-02-14T18:59:27.533Z,75.08
2023-02-14T19:01:55.182Z,75.00
2023-02-14T19:04:22.451Z,75.03
2023-02-14T19:06:50.105Z,75.15
2023-02-14T19:09:18.763Z,74.94
2023-02-14T19:11:46.665Z,74.73
2023-02-14T19:14:14.425Z,74.09
2023-02-14T19:16:51.244Z,74.08
2023-02-14T19:19:19.775Z,73.97
2023-02-14T19:21:47.422Z,73.86
2023-02-14T19:24:17.561Z,73.99
2023-02-14T19:26:45.653Z,73.49
2023-02-14T19:29:17.162Z,73.48
2023-02-14T19:31:52.540Z,73.25
2023-02-14T19:34:29.368Z,73.16
2023-02-14T19:37:00.609Z,73.29
2023-02-14T19:39:30.087Z,73.28
2023-02-14T19:41:58.934Z,73.27
2023-02-14T19:44:26.506Z,73.27
2023-02-14T19:46:56.497Z,73.12
2023-02-14T19:49:24.018Z,73.27
2023-02-14T19:51:51.640Z,73.33
2023-02-14T19:54:21.959Z,73.06
2023-02-14T19:56:49.624Z,73.16
2023-02-14T19:59:20.475Z,73.17
2023-02-14T20:01:55.148Z,73.13
2023-02-14T20:04:29.543Z,72.96
2023-02-14T20:06:58.081Z,73.08
2023-02-14T20:09:25.860Z,73.16
2023-02-14T20:11:56.088Z,73.12
2023-02-14T20:14:27.620Z,73.20
2023-02-14T20:16:59.078Z,73.06
2023-02-14T20:19:32.665Z,73.21
2023-02-14T20:22:01.000Z,73.29
2023-02-14T20:24:31.672Z,73.29
2023-02-14T20:27:00.629Z,73.48
2023-02-14T20:29:29.120Z,73.26
2023-02-14T20:32:01.481Z,73.30
2023-02-14T20:34:28.996Z,73.68
2023-02-14T20:36:58.605Z,74.21
2023-02-14T20:39:31.699Z,74.73
2023-02-14T20:42:00.871Z,74.27
2023-02-14T20:44:28.586Z,74.52
2023-02-14T20:46:57.398Z,74.53
2023-02-14T20:49:28.229Z,74.40
2023-02-14T20:51:56.189Z,74.27
2023-02-14T20:54:26.642Z,74.42
2023-02-14T20:56:54.295Z,74.26
2023-02-14T20:59:28.916Z,74.14
2023-02-14T21:01:59.282Z,73.99
2023-02-14T21:04:28.249Z,73.99
2023-02-14T21:06:57.940Z,74.12
2023-02-14T21:09:25.279Z,74.34
2023-02-14T21:11:54.074Z,74.28
2023-02-14T21:14:21.925Z,74.22
2023-02-14T21:16:49.677Z,74.22
2023-02-14T21:19:17.716Z,74.14
2023-02-14T21:21:45.773Z,73.81
2023-02-14T21:24:16.236Z,73.99
2023-02-14T21:26:44.957Z,74.00
2023-02-14T21:29:12.269Z,74.23
2023-02-14T21:31:40.015Z,74.17
2023-02-14T21:34:07.359Z,74.00
2023-02-14T21:36:36.064Z,73.96
2023-02-14T21:39:04.965Z,74.12
2023-02-14T21:41:34.302Z,74.00
2023-02-14T21:44:03.219Z,74.21
2023-02-14T21:46:36.286Z,74.11
2023-02-14T21:49:24.556Z,74.20
2023-02-14T21:51:52.262Z,74.36
2023-02-14T21:54:19.675Z,74.39
2023-02-14T21:56:49.307Z,74.48
2023-02-14T21:59:16.643Z,74.46
2023-02-14T22:01:44.540Z,74.49
2023-02-14T22:04:13.050Z,74.42
2023-02-14T22:06:42.591Z,74.19
2023-02-14T22:09:13.868Z,74.03
2023-02-14T22:11:42.233Z,73.92
2023-02-14T22:14:09.702Z,74.12
2023-02-14T22:16:38.263Z,73.99
2023-02-14T22:19:07.582Z,73.92
2023-02-14T22:21:35.492Z,74.04
2023-02-14T22:24:03.246Z,74.13
2023-02-14T22:26:34.742Z,74.12
2023-02-14T22:29:03.387Z,74.13
2023-02-14T22:31:37.850Z,74.25
2023-02-14T22:34:07.793Z,74.18
2023-02-14T22:36:35.966Z,74.37
2023-02-14T22:39:04.554Z,74.42
2023-02-14T22:41:37.760Z,74.39
2023-02-14T22:44:06.568Z,74.07
2023-02-14T22:46:38.781Z,74.12
2023-02-14T22:49:07.803Z,74.08
2023-02-14T22:51:39.616Z,74.12
2023-02-14T22:54:14.672Z,74.39
2023-02-14T22:56:46.690Z,74.27
2023-02-14T22:59:17.062Z,74.11
2023-02-14T23:01:45.798Z,74.38
2023-02-14T23:04:13.709Z,74.21
2023-02-14T23:06:41.430Z,74.14
2023-02-14T23:09:11.031Z,74.01
2023-02-14T23:11:40.896Z,74.12
2023-02-14T23:14:29.239Z,73.93
2023-02-14T23:17:15.077Z,73.81
2023-02-14T23:20:02.697Z,74.03
2023-02-14T23:22:35.216Z,73.87
2023-02-14T23:25:07.097Z,73.56
2023-02-14T23:27:43.040Z,73.82
2023-02-14T23:30:15.957Z,74.14
2023-02-14T23:32:43.724Z,73.92
2023-02-14T23:35:11.749Z,74.06
2023-02-14T23:37:39.380Z,74.61
2023-02-14T23:40:07.709Z,74.76
2023-02-14T23:42:35.337Z,74.74
2023-02-14T23:45:21.113Z,74.98
2023-02-14T23:47:49.123Z,75.30
2023-02-14T23:50:16.584Z,75.32
2023-02-14T23:52:44.702Z,75.19
2023-02-14T23:55:12.472Z,75.22
2023-02-14T23:57:40.581Z,75.28
